sensor_id;sensor_type;location;lat;lon;timestamp;P1;durP1;ratioP1;P2;durP2;ratioP2
72198;SDS011;60103;51.014;16.992;2023-03-01T00:00:20;56.80;;;20.60;;
72198;SDS011;60103;51.014;16.992;2023-03-01T00:03:09;54.50;;;22.60;;
72198;SDS011;60103;51.014;16.992;2023-03-01T00:05:45;57.10;;;23.00;;
72198;SDS011;60103;51.014;16.992;2023-03-01T00:08:14;51.50;;;19.90;;
72198;SDS011;60103;51.014;16.992;2023-03-01T00:10:44;48.70;;;18.70;;
72198;SDS011;60103;51.014;16.992;2023-03-01T00:13:13;50.60;;;17.20;;
72198;SDS011;60103;51.014;16.992;2023-03-01T00:15:42;55.60;;;21.50;;
72198;SDS011;60103;51.014;16.992;2023-03-01T00:18:12;60.30;;;22.50;;
72198;SDS011;60103;51.014;16.992;2023-03-01T00:20:41;55.90;;;24.00;;
72198;SDS011;60103;51.014;16.992;2023-03-01T00:23:10;56.70;;;22.50;;
72198;SDS011;60103;51.014;16.992;2023-03-01T00:25:43;55.40;;;22.30;;
72198;SDS011;60103;51.014;16.992;2023-03-01T00:28:11;53.90;;;21.60;;
72198;SDS011;60103;51.014;16.992;2023-03-01T00:30:42;51.90;;;20.00;;
72198;SDS011;60103;51.014;16.992;2023-03-01T00:33:12;53.40;;;20.50;;
72198;SDS011;60103;51.014;16.992;2023-03-01T00:35:40;52.60;;;19.30;;
72198;SDS011;60103;51.014;16.992;2023-03-01T00:38:10;48.60;;;20.70;;
72198;SDS011;60103;51.014;16.992;2023-03-01T00:40:39;47.50;;;19.40;;
72198;SDS011;60103;51.014;16.992;2023-03-01T00:43:08;58.30;;;22.60;;
72198;SDS011;60103;51.014;16.992;2023-03-01T00:45:38;58.50;;;22.20;;
72198;SDS011;60103;51.014;16.992;2023-03-01T00:48:07;59.70;;;21.80;;
72198;SDS011;60103;51.014;16.992;2023-03-01T00:50:36;61.20;;;23.10;;
72198;SDS011;60103;51.014;16.992;2023-03-01T00:53:06;50.00;;;19.90;;
72198;SDS011;60103;51.014;16.992;2023-03-01T00:55:35;54.90;;;20.90;;
72198;SDS011;60103;51.014;16.992;2023-03-01T00:58:06;52.30;;;20.00;;
72198;SDS011;60103;51.014;16.992;2023-03-01T01:00:36;51.50;;;19.70;;
72198;SDS011;60103;51.014;16.992;2023-03-01T01:03:05;54.80;;;22.20;;
72198;SDS011;60103;51.014;16.992;2023-03-01T01:05:34;49.10;;;19.80;;
72198;SDS011;60103;51.014;16.992;2023-03-01T01:08:03;52.50;;;21.50;;
72198;SDS011;60103;51.014;16.992;2023-03-01T01:10:35;60.30;;;23.20;;
72198;SDS011;60103;51.014;16.992;2023-03-01T01:16:01;53.20;;;22.20;;
72198;SDS011;60103;51.014;16.992;2023-03-01T01:18:30;60.80;;;23.20;;
72198;SDS011;60103;51.014;16.992;2023-03-01T01:21:04;55.30;;;22.70;;
72198;SDS011;60103;51.014;16.992;2023-03-01T01:23:38;56.20;;;21.50;;
72198;SDS011;60103;51.014;16.992;2023-03-01T01:26:08;53.40;;;21.30;;
72198;SDS011;60103;51.014;16.992;2023-03-01T01:28:39;54.00;;;20.20;;
72198;SDS011;60103;51.014;16.992;2023-03-01T01:31:08;54.20;;;21.20;;
72198;SDS011;60103;51.014;16.992;2023-03-01T01:33:37;59.50;;;22.10;;
72198;SDS011;60103;51.014;16.992;2023-03-01T01:36:06;55.60;;;22.90;;
72198;SDS011;60103;51.014;16.992;2023-03-01T01:38:37;59.90;;;23.50;;
72198;SDS011;60103;51.014;16.992;2023-03-01T01:41:06;55.80;;;21.70;;
72198;SDS011;60103;51.014;16.992;2023-03-01T01:43:37;56.40;;;21.50;;
72198;SDS011;60103;51.014;16.992;2023-03-01T01:46:30;50.80;;;20.80;;
72198;SDS011;60103;51.014;16.992;2023-03-01T01:49:04;57.60;;;21.30;;
72198;SDS011;60103;51.014;16.992;2023-03-01T01:51:42;58.10;;;22.40;;
72198;SDS011;60103;51.014;16.992;2023-03-01T01:54:19;58.10;;;23.50;;
72198;SDS011;60103;51.014;16.992;2023-03-01T01:56:56;56.30;;;22.70;;
72198;SDS011;60103;51.014;16.992;2023-03-01T01:59:28;60.20;;;22.50;;
72198;SDS011;60103;51.014;16.992;2023-03-01T02:02:02;58.90;;;21.70;;
72198;SDS011;60103;51.014;16.992;2023-03-01T02:04:32;56.40;;;22.80;;
72198;SDS011;60103;51.014;16.992;2023-03-01T02:07:03;61.00;;;22.80;;
72198;SDS011;60103;51.014;16.992;2023-03-01T02:09:37;56.90;;;21.50;;
72198;SDS011;60103;51.014;16.992;2023-03-01T02:12:06;57.90;;;22.30;;
72198;SDS011;60103;51.014;16.992;2023-03-01T02:14:35;56.20;;;21.50;;
72198;SDS011;60103;51.014;16.992;2023-03-01T02:17:04;55.20;;;20.70;;
72198;SDS011;60103;51.014;16.992;2023-03-01T02:22:30;80.90;;;30.40;;
72198;SDS011;60103;51.014;16.992;2023-03-01T02:25:03;60.00;;;24.70;;
72198;SDS011;60103;51.014;16.992;2023-03-01T02:30:39;59.40;;;22.30;;
72198;SDS011;60103;51.014;16.992;2023-03-01T02:33:29;55.30;;;21.60;;
72198;SDS011;60103;51.014;16.992;2023-03-01T02:36:12;57.60;;;22.00;;
72198;SDS011;60103;51.014;16.992;2023-03-01T02:38:47;52.30;;;21.40;;
72198;SDS011;60103;51.014;16.992;2023-03-01T02:41:17;52.50;;;21.30;;
72198;SDS011;60103;51.014;16.992;2023-03-01T02:43:48;58.00;;;22.60;;
72198;SDS011;60103;51.014;16.992;2023-03-01T02:46:18;57.00;;;21.80;;
72198;SDS011;60103;51.014;16.992;2023-03-01T02:48:51;61.40;;;23.50;;
72198;SDS011;60103;51.014;16.992;2023-03-01T02:56:53;54.30;;;20.40;;
72198;SDS011;60103;51.014;16.992;2023-03-01T02:59:29;65.60;;;24.10;;
72198;SDS011;60103;51.014;16.992;2023-03-01T03:02:00;57.50;;;22.90;;
72198;SDS011;60103;51.014;16.992;2023-03-01T03:04:29;59.60;;;22.50;;
72198;SDS011;60103;51.014;16.992;2023-03-01T03:06:57;68.30;;;22.40;;
72198;SDS011;60103;51.014;16.992;2023-03-01T03:09:27;67.90;;;25.60;;
72198;SDS011;60103;51.014;16.992;2023-03-01T03:11:56;69.40;;;24.90;;
72198;SDS011;60103;51.014;16.992;2023-03-01T03:14:26;66.50;;;24.40;;
72198;SDS011;60103;51.014;16.992;2023-03-01T03:16:55;65.60;;;24.70;;
72198;SDS011;60103;51.014;16.992;2023-03-01T03:19:23;70.10;;;26.00;;
72198;SDS011;60103;51.014;16.992;2023-03-01T03:21:52;63.40;;;23.70;;
72198;SDS011;60103;51.014;16.992;2023-03-01T03:24:21;75.70;;;26.50;;
72198;SDS011;60103;51.014;16.992;2023-03-01T03:26:50;78.20;;;28.10;;
72198;SDS011;60103;51.014;16.992;2023-03-01T03:29:19;60.00;;;24.50;;
72198;SDS011;60103;51.014;16.992;2023-03-01T03:31:47;61.20;;;23.90;;
72198;SDS011;60103;51.014;16.992;2023-03-01T03:34:16;63.40;;;24.90;;
72198;SDS011;60103;51.014;16.992;2023-03-01T03:36:46;64.20;;;23.90;;
72198;SDS011;60103;51.014;16.992;2023-03-01T03:39:14;67.10;;;24.50;;
72198;SDS011;60103;51.014;16.992;2023-03-01T03:41:45;64.30;;;24.50;;
72198;SDS011;60103;51.014;16.992;2023-03-01T03:44:13;63.30;;;24.90;;
72198;SDS011;60103;51.014;16.992;2023-03-01T03:46:43;66.70;;;23.20;;
72198;SDS011;60103;51.014;16.992;2023-03-01T03:49:12;57.90;;;23.60;;
72198;SDS011;60103;51.014;16.992;2023-03-01T03:51:40;59.40;;;22.40;;
72198;SDS011;60103;51.014;16.992;2023-03-01T03:54:09;53.40;;;22.50;;
72198;SDS011;60103;51.014;16.992;2023-03-01T03:56:38;60.10;;;23.30;;
72198;SDS011;60103;51.014;16.992;2023-03-01T03:59:08;69.80;;;23.90;;
72198;SDS011;60103;51.014;16.992;2023-03-01T04:01:37;65.10;;;25.70;;
72198;SDS011;60103;51.014;16.992;2023-03-01T04:04:06;62.40;;;24.70;;
72198;SDS011;60103;51.014;16.992;2023-03-01T04:06:36;64.10;;;25.70;;
72198;SDS011;60103;51.014;16.992;2023-03-01T04:09:04;68.60;;;25.50;;
72198;SDS011;60103;51.014;16.992;2023-03-01T04:11:33;62.30;;;24.10;;
72198;SDS011;60103;51.014;16.992;2023-03-01T04:14:02;65.40;;;25.50;;
72198;SDS011;60103;51.014;16.992;2023-03-01T04:16:32;58.80;;;24.90;;
72198;SDS011;60103;51.014;16.992;2023-03-01T04:19:01;59.50;;;24.00;;
72198;SDS011;60103;51.014;16.992;2023-03-01T04:21:30;66.60;;;25.50;;
72198;SDS011;60103;51.014;16.992;2023-03-01T04:23:59;60.10;;;24.50;;
72198;SDS011;60103;51.014;16.992;2023-03-01T04:26:27;64.90;;;24.10;;
72198;SDS011;60103;51.014;16.992;2023-03-01T04:28:57;67.90;;;24.90;;
72198;SDS011;60103;51.014;16.992;2023-03-01T04:31:25;71.20;;;26.70;;
72198;SDS011;60103;51.014;16.992;2023-03-01T04:33:55;67.70;;;26.50;;
72198;SDS011;60103;51.014;16.992;2023-03-01T04:36:25;66.20;;;25.10;;
72198;SDS011;60103;51.014;16.992;2023-03-01T04:38:56;75.50;;;25.70;;
72198;SDS011;60103;51.014;16.992;2023-03-01T04:41:25;65.60;;;25.10;;
72198;SDS011;60103;51.014;16.992;2023-03-01T04:43:54;63.00;;;24.50;;
72198;SDS011;60103;51.014;16.992;2023-03-01T04:46:23;71.00;;;27.20;;
72198;SDS011;60103;51.014;16.992;2023-03-01T04:48:52;70.60;;;27.40;;
72198;SDS011;60103;51.014;16.992;2023-03-01T04:51:21;73.00;;;27.90;;
72198;SDS011;60103;51.014;16.992;2023-03-01T04:53:49;71.40;;;28.00;;
72198;SDS011;60103;51.014;16.992;2023-03-01T04:56:18;78.70;;;30.00;;
72198;SDS011;60103;51.014;16.992;2023-03-01T04:58:48;72.00;;;25.90;;
72198;SDS011;60103;51.014;16.992;2023-03-01T05:01:18;71.50;;;24.60;;
72198;SDS011;60103;51.014;16.992;2023-03-01T05:03:49;93.70;;;42.10;;
72198;SDS011;60103;51.014;16.992;2023-03-01T05:06:19;89.00;;;38.70;;
72198;SDS011;60103;51.014;16.992;2023-03-01T05:08:49;69.50;;;27.80;;
72198;SDS011;60103;51.014;16.992;2023-03-01T05:11:18;60.60;;;24.70;;
72198;SDS011;60103;51.014;16.992;2023-03-01T05:13:46;74.90;;;26.10;;
72198;SDS011;60103;51.014;16.992;2023-03-01T05:16:15;69.50;;;25.40;;
72198;SDS011;60103;51.014;16.992;2023-03-01T05:18:45;66.20;;;25.20;;
72198;SDS011;60103;51.014;16.992;2023-03-01T05:21:14;64.80;;;24.40;;
72198;SDS011;60103;51.014;16.992;2023-03-01T05:23:45;65.00;;;24.00;;
72198;SDS011;60103;51.014;16.992;2023-03-01T05:26:16;64.90;;;24.90;;
72198;SDS011;60103;51.014;16.992;2023-03-01T05:28:55;63.50;;;24.30;;
72198;SDS011;60103;51.014;16.992;2023-03-01T05:31:28;73.20;;;26.90;;
72198;SDS011;60103;51.014;16.992;2023-03-01T05:33:59;71.20;;;29.70;;
72198;SDS011;60103;51.014;16.992;2023-03-01T05:36:27;75.40;;;28.50;;
72198;SDS011;60103;51.014;16.992;2023-03-01T05:38:56;75.00;;;30.10;;
72198;SDS011;60103;51.014;16.992;2023-03-01T05:41:25;79.70;;;29.30;;
72198;SDS011;60103;51.014;16.992;2023-03-01T05:43:54;76.70;;;29.50;;
72198;SDS011;60103;51.014;16.992;2023-03-01T05:46:24;80.30;;;31.60;;
72198;SDS011;60103;51.014;16.992;2023-03-01T05:48:53;73.40;;;29.00;;
72198;SDS011;60103;51.014;16.992;2023-03-01T05:51:22;64.00;;;23.50;;
72198;SDS011;60103;51.014;16.992;2023-03-01T05:53:50;63.80;;;23.50;;
72198;SDS011;60103;51.014;16.992;2023-03-01T05:56:20;58.50;;;22.90;;
72198;SDS011;60103;51.014;16.992;2023-03-01T05:58:50;58.00;;;22.80;;
72198;SDS011;60103;51.014;16.992;2023-03-01T06:01:19;59.80;;;23.90;;
72198;SDS011;60103;51.014;16.992;2023-03-01T06:03:49;63.20;;;24.50;;
72198;SDS011;60103;51.014;16.992;2023-03-01T06:06:17;65.40;;;24.50;;
72198;SDS011;60103;51.014;16.992;2023-03-01T06:08:47;62.20;;;23.80;;
72198;SDS011;60103;51.014;16.992;2023-03-01T06:11:15;69.10;;;25.30;;
72198;SDS011;60103;51.014;16.992;2023-03-01T06:13:44;65.00;;;25.70;;
72198;SDS011;60103;51.014;16.992;2023-03-01T06:16:14;69.70;;;25.70;;
72198;SDS011;60103;51.014;16.992;2023-03-01T06:18:43;61.40;;;23.50;;
72198;SDS011;60103;51.014;16.992;2023-03-01T06:21:13;64.70;;;25.40;;
72198;SDS011;60103;51.014;16.992;2023-03-01T06:23:41;70.20;;;26.20;;
72198;SDS011;60103;51.014;16.992;2023-03-01T06:26:10;82.80;;;28.20;;
72198;SDS011;60103;51.014;16.992;2023-03-01T06:28:39;71.50;;;25.30;;
72198;SDS011;60103;51.014;16.992;2023-03-01T06:31:08;59.70;;;24.30;;
72198;SDS011;60103;51.014;16.992;2023-03-01T06:33:37;71.40;;;25.90;;
72198;SDS011;60103;51.014;16.992;2023-03-01T06:36:07;66.40;;;26.60;;
72198;SDS011;60103;51.014;16.992;2023-03-01T06:38:36;61.50;;;24.90;;
72198;SDS011;60103;51.014;16.992;2023-03-01T06:41:05;64.70;;;26.10;;
72198;SDS011;60103;51.014;16.992;2023-03-01T06:43:34;71.70;;;26.80;;
72198;SDS011;60103;51.014;16.992;2023-03-01T06:46:04;65.20;;;26.00;;
72198;SDS011;60103;51.014;16.992;2023-03-01T06:48:34;63.30;;;25.20;;
72198;SDS011;60103;51.014;16.992;2023-03-01T06:51:03;70.30;;;26.30;;
72198;SDS011;60103;51.014;16.992;2023-03-01T06:53:32;65.80;;;25.60;;
72198;SDS011;60103;51.014;16.992;2023-03-01T06:56:01;67.60;;;25.90;;
72198;SDS011;60103;51.014;16.992;2023-03-01T06:58:30;67.40;;;26.90;;
72198;SDS011;60103;51.014;16.992;2023-03-01T07:00:58;63.50;;;25.80;;
72198;SDS011;60103;51.014;16.992;2023-03-01T07:03:27;72.50;;;28.10;;
72198;SDS011;60103;51.014;16.992;2023-03-01T07:05:56;70.60;;;28.30;;
72198;SDS011;60103;51.014;16.992;2023-03-01T07:08:24;72.30;;;29.10;;
72198;SDS011;60103;51.014;16.992;2023-03-01T07:10:58;75.70;;;29.30;;
72198;SDS011;60103;51.014;16.992;2023-03-01T07:13:27;74.70;;;28.90;;
72198;SDS011;60103;51.014;16.992;2023-03-01T07:15:56;74.20;;;29.30;;
72198;SDS011;60103;51.014;16.992;2023-03-01T07:18:25;69.80;;;28.30;;
72198;SDS011;60103;51.014;16.992;2023-03-01T07:20:53;68.20;;;27.00;;
72198;SDS011;60103;51.014;16.992;2023-03-01T07:23:22;68.70;;;27.90;;
72198;SDS011;60103;51.014;16.992;2023-03-01T07:25:52;74.90;;;29.80;;
72198;SDS011;60103;51.014;16.992;2023-03-01T07:28:24;76.90;;;30.00;;
72198;SDS011;60103;51.014;16.992;2023-03-01T07:30:53;69.30;;;27.30;;
72198;SDS011;60103;51.014;16.992;2023-03-01T07:33:22;78.40;;;28.70;;
72198;SDS011;60103;51.014;16.992;2023-03-01T07:35:55;65.60;;;28.30;;
72198;SDS011;60103;51.014;16.992;2023-03-01T07:38:26;77.20;;;29.90;;
72198;SDS011;60103;51.014;16.992;2023-03-01T07:40:59;71.50;;;29.20;;
72198;SDS011;60103;51.014;16.992;2023-03-01T07:43:29;76.80;;;29.10;;
72198;SDS011;60103;51.014;16.992;2023-03-01T07:45:59;73.50;;;29.70;;
72198;SDS011;60103;51.014;16.992;2023-03-01T07:48:30;68.20;;;28.00;;
72198;SDS011;60103;51.014;16.992;2023-03-01T07:50:59;73.10;;;30.20;;
72198;SDS011;60103;51.014;16.992;2023-03-01T07:53:29;71.60;;;29.80;;
72198;SDS011;60103;51.014;16.992;2023-03-01T07:56:02;73.00;;;28.80;;
72198;SDS011;60103;51.014;16.992;2023-03-01T07:58:36;71.60;;;29.20;;
72198;SDS011;60103;51.014;16.992;2023-03-01T08:01:07;71.10;;;29.10;;
72198;SDS011;60103;51.014;16.992;2023-03-01T08:03:37;70.90;;;28.10;;
72198;SDS011;60103;51.014;16.992;2023-03-01T08:06:07;70.00;;;28.20;;
72198;SDS011;60103;51.014;16.992;2023-03-01T08:08:37;67.50;;;25.80;;
72198;SDS011;60103;51.014;16.992;2023-03-01T08:11:06;66.80;;;28.10;;
72198;SDS011;60103;51.014;16.992;2023-03-01T08:13:37;69.20;;;28.30;;
72198;SDS011;60103;51.014;16.992;2023-03-01T08:16:10;68.60;;;28.10;;
72198;SDS011;60103;51.014;16.992;2023-03-01T08:18:40;64.90;;;26.60;;
72198;SDS011;60103;51.014;16.992;2023-03-01T08:21:10;69.80;;;27.00;;
72198;SDS011;60103;51.014;16.992;2023-03-01T08:23:40;59.90;;;26.30;;
72198;SDS011;60103;51.014;16.992;2023-03-01T08:26:11;62.10;;;24.80;;
72198;SDS011;60103;51.014;16.992;2023-03-01T08:28:41;62.70;;;26.20;;
72198;SDS011;60103;51.014;16.992;2023-03-01T08:31:21;58.10;;;24.50;;
72198;SDS011;60103;51.014;16.992;2023-03-01T08:34:00;64.00;;;26.50;;
72198;SDS011;60103;51.014;16.992;2023-03-01T08:36:31;58.90;;;24.90;;
72198;SDS011;60103;51.014;16.992;2023-03-01T08:39:01;54.00;;;24.40;;
72198;SDS011;60103;51.014;16.992;2023-03-01T08:41:31;60.60;;;25.30;;
72198;SDS011;60103;51.014;16.992;2023-03-01T08:43:59;63.80;;;25.60;;
72198;SDS011;60103;51.014;16.992;2023-03-01T08:46:35;53.70;;;23.20;;
72198;SDS011;60103;51.014;16.992;2023-03-01T08:49:08;60.20;;;25.40;;
72198;SDS011;60103;51.014;16.992;2023-03-01T08:51:39;56.50;;;23.40;;
72198;SDS011;60103;51.014;16.992;2023-03-01T08:54:11;55.00;;;23.60;;
72198;SDS011;60103;51.014;16.992;2023-03-01T08:56:42;55.10;;;23.80;;
72198;SDS011;60103;51.014;16.992;2023-03-01T08:59:11;52.50;;;22.40;;
72198;SDS011;60103;51.014;16.992;2023-03-01T09:01:41;55.50;;;22.60;;
72198;SDS011;60103;51.014;16.992;2023-03-01T09:04:14;48.60;;;20.80;;
72198;SDS011;60103;51.014;16.992;2023-03-01T09:06:44;44.70;;;17.40;;
72198;SDS011;60103;51.014;16.992;2023-03-01T09:09:13;48.40;;;19.60;;
72198;SDS011;60103;51.014;16.992;2023-03-01T09:11:46;53.60;;;20.80;;
72198;SDS011;60103;51.014;16.992;2023-03-01T09:14:15;49.60;;;21.70;;
72198;SDS011;60103;51.014;16.992;2023-03-01T09:16:44;45.60;;;19.90;;
72198;SDS011;60103;51.014;16.992;2023-03-01T09:19:13;34.60;;;15.20;;
72198;SDS011;60103;51.014;16.992;2023-03-01T09:21:42;49.00;;;20.10;;
72198;SDS011;60103;51.014;16.992;2023-03-01T09:24:20;37.80;;;15.10;;
72198;SDS011;60103;51.014;16.992;2023-03-01T09:26:52;31.30;;;14.50;;
72198;SDS011;60103;51.014;16.992;2023-03-01T09:29:22;32.60;;;13.70;;
72198;SDS011;60103;51.014;16.992;2023-03-01T09:31:51;32.40;;;13.70;;
72198;SDS011;60103;51.014;16.992;2023-03-01T09:34:23;42.20;;;16.60;;
72198;SDS011;60103;51.014;16.992;2023-03-01T09:36:52;40.90;;;17.20;;
72198;SDS011;60103;51.014;16.992;2023-03-01T09:39:21;37.50;;;15.10;;
72198;SDS011;60103;51.014;16.992;2023-03-01T09:47:01;30.70;;;13.00;;
72198;SDS011;60103;51.014;16.992;2023-03-01T09:49:31;41.70;;;16.70;;
72198;SDS011;60103;51.014;16.992;2023-03-01T09:52:11;43.90;;;17.40;;
72198;SDS011;60103;51.014;16.992;2023-03-01T09:54:49;33.50;;;14.40;;
72198;SDS011;60103;51.014;16.992;2023-03-01T09:57:38;34.40;;;13.50;;
72198;SDS011;60103;51.014;16.992;2023-03-01T10:00:42;37.40;;;15.30;;
72198;SDS011;60103;51.014;16.992;2023-03-01T10:06:15;36.40;;;14.90;;
72198;SDS011;60103;51.014;16.992;2023-03-01T10:09:03;37.80;;;16.00;;
72198;SDS011;60103;51.014;16.992;2023-03-01T10:11:39;40.00;;;17.10;;
72198;SDS011;60103;51.014;16.992;2023-03-01T10:16:57;35.40;;;16.10;;
72198;SDS011;60103;51.014;16.992;2023-03-01T10:19:39;39.10;;;16.10;;
72198;SDS011;60103;51.014;16.992;2023-03-01T10:22:16;35.30;;;14.80;;
72198;SDS011;60103;51.014;16.992;2023-03-01T10:24:49;38.10;;;16.00;;
72198;SDS011;60103;51.014;16.992;2023-03-01T10:30:00;40.30;;;17.40;;
72198;SDS011;60103;51.014;16.992;2023-03-01T10:32:34;40.60;;;17.60;;
72198;SDS011;60103;51.014;16.992;2023-03-01T10:35:20;38.00;;;17.50;;
72198;SDS011;60103;51.014;16.992;2023-03-01T10:38:11;37.00;;;14.90;;
72198;SDS011;60103;51.014;16.992;2023-03-01T10:40:54;34.30;;;15.30;;
72198;SDS011;60103;51.014;16.992;2023-03-01T10:46:26;35.00;;;15.10;;
72198;SDS011;60103;51.014;16.992;2023-03-01T10:51:45;30.00;;;12.60;;
72198;SDS011;60103;51.014;16.992;2023-03-01T10:56:51;36.70;;;16.40;;
72198;SDS011;60103;51.014;16.992;2023-03-01T11:02:03;38.20;;;17.30;;
72198;SDS011;60103;51.014;16.992;2023-03-01T11:05:03;29.90;;;13.80;;
72198;SDS011;60103;51.014;16.992;2023-03-01T11:07:52;36.40;;;15.30;;
72198;SDS011;60103;51.014;16.992;2023-03-01T11:10:34;33.00;;;13.30;;
72198;SDS011;60103;51.014;16.992;2023-03-01T11:13:09;31.20;;;12.90;;
72198;SDS011;60103;51.014;16.992;2023-03-01T11:15:58;33.70;;;13.50;;
72198;SDS011;60103;51.014;16.992;2023-03-01T11:18:29;34.80;;;13.70;;
72198;SDS011;60103;51.014;16.992;2023-03-01T11:21:15;32.70;;;13.80;;
72198;SDS011;60103;51.014;16.992;2023-03-01T11:23:44;30.50;;;12.50;;
72198;SDS011;60103;51.014;16.992;2023-03-01T11:26:15;31.50;;;13.30;;
72198;SDS011;60103;51.014;16.992;2023-03-01T11:28:44;27.30;;;11.00;;
72198;SDS011;60103;51.014;16.992;2023-03-01T11:31:19;29.50;;;11.80;;
72198;SDS011;60103;51.014;16.992;2023-03-01T11:33:53;29.90;;;13.40;;
72198;SDS011;60103;51.014;16.992;2023-03-01T11:36:40;24.70;;;10.50;;
72198;SDS011;60103;51.014;16.992;2023-03-01T11:42:11;28.00;;;12.50;;
72198;SDS011;60103;51.014;16.992;2023-03-01T11:44:47;29.00;;;13.10;;
72198;SDS011;60103;51.014;16.992;2023-03-01T11:47:25;24.60;;;9.90;;
72198;SDS011;60103;51.014;16.992;2023-03-01T11:53:01;23.90;;;10.40;;
72198;SDS011;60103;51.014;16.992;2023-03-01T12:03:49;29.00;;;11.30;;
72198;SDS011;60103;51.014;16.992;2023-03-01T12:09:21;29.20;;;13.10;;
72198;SDS011;60103;51.014;16.992;2023-03-01T12:14:54;34.00;;;14.00;;
72198;SDS011;60103;51.014;16.992;2023-03-01T12:20:36;31.00;;;13.40;;
72198;SDS011;60103;51.014;16.992;2023-03-01T12:43:20;22.70;;;9.50;;
72198;SDS011;60103;51.014;16.992;2023-03-01T12:45:59;19.50;;;7.90;;
72198;SDS011;60103;51.014;16.992;2023-03-01T12:51:25;16.70;;;7.70;;
72198;SDS011;60103;51.014;16.992;2023-03-01T12:53:55;15.20;;;6.30;;
72198;SDS011;60103;51.014;16.992;2023-03-01T12:56:29;18.30;;;7.30;;
72198;SDS011;60103;51.014;16.992;2023-03-01T12:59:02;15.10;;;6.50;;
72198;SDS011;60103;51.014;16.992;2023-03-01T13:10:29;15.80;;;6.60;;
72198;SDS011;60103;51.014;16.992;2023-03-01T13:16:19;16.00;;;6.70;;
72198;SDS011;60103;51.014;16.992;2023-03-01T13:21:48;16.00;;;6.40;;
72198;SDS011;60103;51.014;16.992;2023-03-01T13:29:46;16.30;;;6.80;;
72198;SDS011;60103;51.014;16.992;2023-03-01T13:32:20;18.30;;;7.90;;
72198;SDS011;60103;51.014;16.992;2023-03-01T13:37:46;20.80;;;8.30;;
72198;SDS011;60103;51.014;16.992;2023-03-01T13:42:51;20.30;;;8.20;;
72198;SDS011;60103;51.014;16.992;2023-03-01T13:45:34;20.00;;;8.40;;
72198;SDS011;60103;51.014;16.992;2023-03-01T13:48:11;21.10;;;9.00;;
72198;SDS011;60103;51.014;16.992;2023-03-01T13:50:52;19.30;;;8.70;;
72198;SDS011;60103;51.014;16.992;2023-03-01T13:53:25;20.20;;;8.30;;
72198;SDS011;60103;51.014;16.992;2023-03-01T13:55:55;17.90;;;7.60;;
72198;SDS011;60103;51.014;16.992;2023-03-01T13:58:50;18.40;;;7.80;;
72198;SDS011;60103;51.014;16.992;2023-03-01T14:01:39;18.40;;;7.90;;
72198;SDS011;60103;51.014;16.992;2023-03-01T14:04:21;16.60;;;6.80;;
72198;SDS011;60103;51.014;16.992;2023-03-01T14:07:17;17.10;;;6.90;;
72198;SDS011;60103;51.014;16.992;2023-03-01T14:09:49;17.80;;;7.50;;
72198;SDS011;60103;51.014;16.992;2023-03-01T14:12:23;18.90;;;7.60;;
72198;SDS011;60103;51.014;16.992;2023-03-01T14:15:45;16.70;;;6.80;;
72198;SDS011;60103;51.014;16.992;2023-03-01T14:18:25;19.70;;;8.20;;
72198;SDS011;60103;51.014;16.992;2023-03-01T14:21:01;16.40;;;7.00;;
72198;SDS011;60103;51.014;16.992;2023-03-01T14:23:37;16.70;;;6.20;;
72198;SDS011;60103;51.014;16.992;2023-03-01T14:26:07;19.50;;;7.20;;
72198;SDS011;60103;51.014;16.992;2023-03-01T14:28:36;13.80;;;5.10;;
72198;SDS011;60103;51.014;16.992;2023-03-01T14:33:59;11.50;;;4.30;;
72198;SDS011;60103;51.014;16.992;2023-03-01T14:36:30;12.80;;;4.30;;
72198;SDS011;60103;51.014;16.992;2023-03-01T14:39:00;13.70;;;5.40;;
72198;SDS011;60103;51.014;16.992;2023-03-01T14:41:34;14.10;;;5.70;;
72198;SDS011;60103;51.014;16.992;2023-03-01T14:44:07;15.20;;;5.80;;
72198;SDS011;60103;51.014;16.992;2023-03-01T14:46:44;15.10;;;6.20;;
72198;SDS011;60103;51.014;16.992;2023-03-01T14:49:15;14.90;;;6.10;;
72198;SDS011;60103;51.014;16.992;2023-03-01T14:51:55;14.90;;;5.80;;
72198;SDS011;60103;51.014;16.992;2023-03-01T14:57:22;14.30;;;5.60;;
72198;SDS011;60103;51.014;16.992;2023-03-01T14:59:55;15.80;;;5.90;;
72198;SDS011;60103;51.014;16.992;2023-03-01T15:02:28;13.70;;;5.10;;
72198;SDS011;60103;51.014;16.992;2023-03-01T15:04:58;15.90;;;5.90;;
72198;SDS011;60103;51.014;16.992;2023-03-01T15:07:33;13.00;;;5.10;;
72198;SDS011;60103;51.014;16.992;2023-03-01T15:10:11;16.40;;;6.20;;
72198;SDS011;60103;51.014;16.992;2023-03-01T15:12:45;17.00;;;6.50;;
72198;SDS011;60103;51.014;16.992;2023-03-01T15:18:00;16.50;;;6.50;;
72198;SDS011;60103;51.014;16.992;2023-03-01T15:20:31;15.70;;;6.60;;
72198;SDS011;60103;51.014;16.992;2023-03-01T15:23:04;18.90;;;6.60;;
72198;SDS011;60103;51.014;16.992;2023-03-01T15:25:33;15.00;;;5.70;;
72198;SDS011;60103;51.014;16.992;2023-03-01T15:28:03;15.70;;;6.60;;
72198;SDS011;60103;51.014;16.992;2023-03-01T15:30:32;17.10;;;6.40;;
72198;SDS011;60103;51.014;16.992;2023-03-01T15:33:16;15.70;;;6.00;;
72198;SDS011;60103;51.014;16.992;2023-03-01T15:35:58;15.70;;;6.30;;
72198;SDS011;60103;51.014;16.992;2023-03-01T15:38:33;14.80;;;6.30;;
72198;SDS011;60103;51.014;16.992;2023-03-01T15:41:23;14.70;;;5.10;;
72198;SDS011;60103;51.014;16.992;2023-03-01T15:43:55;15.20;;;5.50;;
72198;SDS011;60103;51.014;16.992;2023-03-01T15:46:32;13.50;;;5.60;;
72198;SDS011;60103;51.014;16.992;2023-03-01T15:49:03;17.50;;;6.50;;
72198;SDS011;60103;51.014;16.992;2023-03-01T15:51:49;16.70;;;6.50;;
72198;SDS011;60103;51.014;16.992;2023-03-01T15:54:19;16.20;;;6.00;;
72198;SDS011;60103;51.014;16.992;2023-03-01T15:56:50;17.90;;;7.00;;
72198;SDS011;60103;51.014;16.992;2023-03-01T15:59:19;19.40;;;7.50;;
72198;SDS011;60103;51.014;16.992;2023-03-01T16:01:48;18.40;;;7.50;;
72198;SDS011;60103;51.014;16.992;2023-03-01T16:04:18;18.90;;;7.40;;
72198;SDS011;60103;51.014;16.992;2023-03-01T16:06:51;18.20;;;7.40;;
72198;SDS011;60103;51.014;16.992;2023-03-01T16:09:24;19.50;;;7.10;;
72198;SDS011;60103;51.014;16.992;2023-03-01T16:11:55;18.20;;;7.40;;
72198;SDS011;60103;51.014;16.992;2023-03-01T16:14:24;17.40;;;6.60;;
72198;SDS011;60103;51.014;16.992;2023-03-01T16:16:53;18.50;;;7.30;;
72198;SDS011;60103;51.014;16.992;2023-03-01T16:19:22;15.20;;;6.50;;
72198;SDS011;60103;51.014;16.992;2023-03-01T16:21:52;16.60;;;6.70;;
72198;SDS011;60103;51.014;16.992;2023-03-01T16:24:22;19.70;;;7.50;;
72198;SDS011;60103;51.014;16.992;2023-03-01T16:26:51;30.40;;;10.70;;
72198;SDS011;60103;51.014;16.992;2023-03-01T16:29:20;25.10;;;9.30;;
72198;SDS011;60103;51.014;16.992;2023-03-01T16:31:49;21.30;;;8.60;;
72198;SDS011;60103;51.014;16.992;2023-03-01T16:34:19;30.60;;;10.00;;
72198;SDS011;60103;51.014;16.992;2023-03-01T16:36:52;32.00;;;11.60;;
72198;SDS011;60103;51.014;16.992;2023-03-01T16:39:21;36.80;;;12.40;;